Time;durP1;ratioP1;P1;durP2;ratioP2;P2;SDS_P1;SDS_P2;PMS_P1;PMS_P2;Temp;Humidity;BMP_temperature;BMP_pressure;BME280_temperature;BME280_humidity;BME280_pressure;Samples;Min_cycle;Max_cycle;Signal;HPM_P1;HPM_P2
2022/12/20 00:01:08;;;;;;;7.85;4.20;;;;;;;13.51;62.36;101283.81;5069869;28;20388;-45
2022/12/20 00:03:34;;;;;;;6.47;3.70;;;;;;;13.46;62.15;101272.41;5072024;28;20399;-42
2022/12/20 00:05:59;;;;;;;7.07;4.20;;;;;;;13.54;62.18;101289.03;5071394;28;20028;-42
2022/12/20 00:08:24;;;;;;;6.80;3.80;;;;;;;13.47;62.27;101279.41;5070768;28;20496;-42
2022/12/20 00:10:50;;;;;;;7.78;3.92;;;;;;;13.44;62.17;101276.75;5070830;28;20016;-48
2022/12/20 00:13:15;;;;;;;7.40;3.80;;;;;;;13.49;62.42;101266.31;5071264;28;20552;-44
2022/12/20 00:15:40;;;;;;;8.57;4.38;;;;;;;13.54;62.34;101265.47;5071078;28;20020;-42
2022/12/20 00:18:06;;;;;;;6.97;4.00;;;;;;;13.60;62.02;101273.38;5071034;28;20032;-42
2022/12/20 00:20:31;;;;;;;7.05;4.10;;;;;;;13.45;62.77;101278.50;5072057;28;20389;-42
2022/12/20 00:22:56;;;;;;;6.88;3.85;;;;;;;13.40;62.87;101280.22;5073076;28;20042;-43
2022/12/20 00:25:22;;;;;;;6.72;4.07;;;;;;;13.49;62.95;101269.81;5072748;28;20085;-45
2022/12/20 00:27:48;;;;;;;6.25;3.92;;;;;;;13.48;62.97;101275.91;5073446;28;20138;-49
2022/12/20 00:30:15;;;;;;;8.18;3.80;;;;;;;13.40;63.48;101270.63;5073447;28;20024;-44
2022/12/20 00:32:40;;;;;;;6.70;3.90;;;;;;;13.43;63.01;101261.00;5073176;28;20032;-45
2022/12/20 00:35:06;;;;;;;10.32;4.05;;;;;;;13.72;62.09;101264.75;5072838;28;20024;-42
2022/12/20 00:37:31;;;;;;;5.90;3.90;;;;;;;13.76;62.28;101262.16;5072983;28;20372;-43
2022/12/20 00:39:57;;;;;;;6.72;3.63;;;;;;;13.54;63.05;101254.16;5071962;28;20025;-43
2022/12/20 00:42:22;;;;;;;9.75;4.10;;;;;;;13.38;63.73;101251.38;5070224;28;20043;-42
2022/12/20 00:44:47;;;;;;;7.43;3.97;;;;;;;13.37;63.95;101243.50;5070795;28;20121;-40
2022/12/20 00:47:13;;;;;;;8.98;4.60;;;;;;;13.44;63.92;101240.09;5070804;28;20021;-46
2022/12/20 00:49:39;;;;;;;7.30;3.92;;;;;;;13.52;64.27;101234.91;5070613;28;20035;-42
2022/12/20 00:52:04;;;;;;;5.95;3.72;;;;;;;13.54;64.30;101233.19;5070254;28;20498;-43
2022/12/20 00:54:29;;;;;;;6.22;3.80;;;;;;;13.23;65.89;101238.19;5070674;28;20107;-42
2022/12/20 00:56:54;;;;;;;5.70;3.92;;;;;;;13.06;66.55;101223.13;5070149;28;20028;-44
2022/12/20 00:59:20;;;;;;;6.55;3.88;;;;;;;13.40;65.93;101225.22;5070288;28;20024;-43
2022/12/20 01:01:46;;;;;;;8.23;4.25;;;;;;;13.47;66.18;101218.28;5070194;28;20107;-45
2022/12/20 01:04:11;;;;;;;6.07;3.72;;;;;;;13.29;66.55;101213.78;5070451;28;20031;-42
2022/12/20 01:06:37;;;;;;;5.22;3.70;;;;;;;13.37;66.62;101202.50;5070698;28;20020;-45
2022/12/20 01:09:03;;;;;;;8.05;4.13;;;;;;;13.37;66.82;101210.34;5070219;28;20240;-44
2022/12/20 01:11:35;;;;;;;5.30;3.65;;;;;;;13.20;67.50;101214.59;5070775;28;20032;-44
2022/12/20 01:14:07;;;;;;;6.97;3.83;;;;;;;13.31;67.22;101217.28;5073378;28;20050;-48
2022/12/20 01:16:38;;;;;;;7.43;3.78;;;;;;;13.46;66.59;101212.16;5072074;28;20115;-45
2022/12/20 01:19:05;;;;;;;7.07;3.83;;;;;;;13.39;67.04;101200.78;5069030;28;20035;-43
2022/12/20 01:21:31;;;;;;;6.85;3.80;;;;;;;13.37;67.31;101202.50;5069216;28;20020;-48
2022/12/20 01:23:57;;;;;;;7.32;3.85;;;;;;;13.35;67.54;101206.88;5069959;28;20154;-47
2022/12/20 01:26:24;;;;;;;5.55;3.72;;;;;;;13.60;66.43;101189.53;5069946;28;20054;-42
2022/12/20 01:28:55;;;;;;;6.57;3.60;;;;;;;13.54;66.44;101172.94;5069690;28;20021;-42
2022/12/20 01:31:22;;;;;;;6.45;3.70;;;;;;;13.34;67.24;101178.03;5069493;28;20119;-43
2022/12/20 01:33:49;;;;;;;7.32;3.80;;;;;;;13.35;66.84;101170.19;5070086;28;20055;-43
2022/12/20 01:36:25;;;;;;;8.00;3.80;;;;;;;13.31;67.46;101176.25;5069823;28;20089;-42
2022/12/20 01:38:56;;;;;;;5.45;3.47;;;;;;;13.31;67.43;101172.78;5070143;28;20021;-44
2022/12/20 01:41:22;;;;;;;6.82;3.70;;;;;;;13.27;67.52;101173.63;5069732;28;20147;-42
2022/12/20 01:43:52;;;;;;;5.97;3.65;;;;;;;13.42;66.84;101160.63;5070156;28;20032;-42
2022/12/20 01:46:20;;;;;;;5.75;3.50;;;;;;;13.61;66.52;101156.38;5069707;28;20051;-44
2022/12/20 01:48:55;;;;;;;6.18;3.45;;;;;;;13.35;67.73;101151.88;5069998;28;20068;-44
2022/12/20 01:51:22;;;;;;;6.57;3.70;;;;;;;13.30;67.28;101171.00;5069513;28;20424;-43
2022/12/20 01:53:54;;;;;;;6.10;3.58;;;;;;;13.58;66.83;101172.09;5070119;28;20025;-43
2022/12/20 01:56:19;;;;;;;6.38;3.70;;;;;;;13.58;66.77;101165.09;5069787;28;20020;-43
2022/12/20 01:58:46;;;;;;;8.23;4.00;;;;;;;13.56;67.01;101161.59;5070542;28;20078;-46
2022/12/20 02:01:12;;;;;;;6.85;3.75;;;;;;;13.37;67.80;101163.22;5070299;28;20480;-43
2022/12/20 02:03:38;;;;;;;8.93;3.90;;;;;;;13.66;67.21;101158.13;5070369;28;20036;-44
2022/12/20 02:06:18;;;;;;;5.97;4.03;;;;;;;13.73;66.54;101162.53;5070172;28;20032;-45
2022/12/20 02:08:47;;;;;;;6.63;4.05;;;;;;;13.74;66.07;101164.31;5068414;28;20028;-43
2022/12/20 02:11:21;;;;;;;5.90;3.88;;;;;;;13.49;67.63;101167.66;5069432;28;20052;-44
2022/12/20 02:14:30;;;;;;;7.80;4.07;;;;;;;13.69;67.02;101180.88;5070091;28;20035;-42
2022/12/20 02:16:59;;;;;;;6.97;4.30;;;;;;;13.61;67.14;101169.47;5061142;28;20524;-46
2022/12/20 02:19:48;;;;;;;9.18;4.13;;;;;;;13.50;67.67;101166.78;5071387;28;20111;-44
2022/12/20 02:22:39;;;;;;;9.68;4.72;;;;;;;13.44;67.77;101171.09;5071944;28;20039;-46
2022/12/20 02:25:37;;;;;;;7.15;4.35;;;;;;;13.49;67.74;101172.00;5072259;28;20409;-41
2022/12/20 02:28:50;;;;;;;5.72;3.83;;;;;;;13.53;67.12;101163.31;5027201;28;20107;-44
2022/12/20 02:31:19;;;;;;;8.45;4.70;;;;;;;13.37;67.60;101151.84;5070931;28;20036;-43
2022/12/20 02:33:47;;;;;;;7.28;4.15;;;;;;;13.38;67.63;101167.59;5074036;28;20035;-43
2022/12/20 02:36:17;;;;;;;6.85;4.30;;;;;;;13.36;67.48;101163.19;5074876;28;20405;-48
2022/12/20 02:38:43;;;;;;;7.25;4.25;;;;;;;13.37;67.77;101172.81;5073929;28;20040;-43
2022/12/20 02:41:15;;;;;;;8.25;4.40;;;;;;;13.29;67.87;101171.91;5073538;28;20419;-47
2022/12/20 02:46:30;;;;;;;8.52;4.32;;;;;;;13.38;67.45;101148.38;5073740;28;20039;-44
2022/12/20 02:48:59;;;;;;;8.80;4.38;;;;;;;13.48;66.96;101152.78;5074436;28;20124;-43
2022/12/20 02:51:27;;;;;;;7.72;4.25;;;;;;;13.57;66.76;101155.47;5074000;28;20028;-44
2022/12/20 02:53:52;;;;;;;6.70;4.22;;;;;;;13.55;66.73;101143.22;5074967;28;20025;-41
2022/12/20 02:56:36;;;;;;;7.95;4.30;;;;;;;13.46;66.76;101149.31;5075188;28;20478;-49
2022/12/20 02:59:07;;;;;;;6.88;4.10;;;;;;;13.71;65.96;101139.84;5075075;28;20103;-42
2022/12/20 03:01:36;;;;;;;6.97;4.30;;;;;;;13.39;66.82;101137.03;5074431;28;20538;-43
2022/12/20 03:04:03;;;;;;;7.03;4.30;;;;;;;13.50;66.51;101143.22;5073215;28;20033;-43
2022/12/20 03:06:29;;;;;;;6.30;3.70;;;;;;;13.61;65.96;101138.03;5073398;28;20021;-43
2022/12/20 03:08:55;;;;;;;6.50;4.05;;;;;;;13.45;66.46;101146.69;5072747;28;20020;-44
2022/12/20 03:11:20;;;;;;;8.80;4.22;;;;;;;13.35;66.83;101136.16;5072130;28;20473;-43
2022/12/20 03:13:46;;;;;;;6.57;3.97;;;;;;;13.46;66.47;101151.94;5054366;28;20017;-43
2022/12/20 03:16:11;;;;;;;5.53;3.83;;;;;;;13.49;66.22;101146.69;5072240;28;20151;-44
2022/12/20 03:18:37;;;;;;;6.43;4.00;;;;;;;13.55;66.49;101149.34;5071931;28;20509;-43
2022/12/20 03:21:02;;;;;;;8.43;4.18;;;;;;;13.55;66.23;101149.34;5072178;28;20103;-42
2022/12/20 03:23:28;;;;;;;6.35;4.00;;;;;;;13.83;65.24;101142.53;5072249;28;20035;-44
2022/12/20 03:25:54;;;;;;;6.70;3.92;;;;;;;13.74;65.66;101150.31;5072037;28;20163;-45
2022/12/20 03:28:19;;;;;;;7.38;3.72;;;;;;;13.95;64.72;101145.19;5072272;28;20026;-41
2022/12/20 03:30:45;;;;;;;5.40;3.80;;;;;;;13.70;64.90;101127.59;5071748;28;20071;-42
2022/12/20 03:33:11;;;;;;;7.15;3.78;;;;;;;13.69;65.32;101133.72;5071795;28;20462;-44
2022/12/20 03:35:36;;;;;;;6.18;3.58;;;;;;;13.64;65.55;101141.56;5080752;23;20038;-44
2022/12/20 03:38:02;;;;;;;8.68;3.72;;;;;;;13.68;65.55;101130.22;5034046;28;20025;-40
2022/12/20 03:40:27;;;;;;;6.38;3.60;;;;;;;13.96;64.65;101131.22;5033325;28;20025;-44
2022/12/20 03:42:53;;;;;;;5.97;3.65;;;;;;;13.85;64.94;101134.63;5033534;28;20060;-44
2022/12/20 03:45:18;;;;;;;6.38;3.83;;;;;;;13.75;65.25;101136.34;5031904;28;20029;-41
2022/12/20 03:47:43;;;;;;;6.97;3.40;;;;;;;13.80;65.38;101140.75;5031762;28;20311;-43
2022/12/20 03:50:09;;;;;;;8.63;3.45;;;;;;;13.96;65.20;101146.06;5031996;28;20441;-43
2022/12/20 03:52:35;;;;;;;6.22;3.67;;;;;;;13.70;65.75;101141.59;5031668;28;20481;-43
2022/12/20 03:55:00;;;;;;;5.78;3.40;;;;;;;13.87;65.24;101146.91;5031412;28;20193;-43
2022/12/20 03:57:26;;;;;;;6.43;3.00;;;;;;;13.49;66.61;101135.34;5030300;28;20116;-42
2022/12/20 03:59:53;;;;;;;5.70;3.50;;;;;;;13.42;67.17;101133.59;5031349;28;20056;-43
2022/12/20 04:02:18;;;;;;;5.22;3.53;;;;;;;13.60;66.89;101129.28;5031595;28;20021;-41
2022/12/20 04:04:43;;;;;;;4.18;3.10;;;;;;;13.69;66.33;101137.22;5031798;28;20051;-41
2022/12/20 04:07:09;;;;;;;6.18;3.55;;;;;;;13.84;66.00;101130.28;5031202;28;20021;-41
2022/12/20 04:09:34;;;;;;;7.38;3.47;;;;;;;13.62;67.60;101130.19;5031540;28;20032;-38
2022/12/20 04:12:00;;;;;;;6.55;3.75;;;;;;;13.73;67.59;101124.97;5031251;28;20470;-40
2022/12/20 04:14:25;;;;;;;7.88;3.70;;;;;;;13.64;67.78;101125.84;5032411;28;20021;-38
2022/12/20 04:16:51;;;;;;;7.38;3.60;;;;;;;13.92;67.21;101115.44;5032322;28;20018;-41
2022/12/20 04:19:16;;;;;;;11.02;3.65;;;;;;;13.96;66.88;101119.84;5032768;28;20029;-43
2022/12/20 04:21:41;;;;;;;5.40;3.35;;;;;;;13.91;67.20;101114.56;5031581;28;20025;-39
2022/12/20 04:24:07;;;;;;;5.82;3.60;;;;;;;13.63;68.48;101138.91;5031809;28;20116;-44
2022/12/20 04:26:32;;;;;;;5.05;3.50;;;;;;;13.52;69.37;101124.91;5031914;28;20056;-42
2022/12/20 04:28:58;;;;;;;5.75;3.70;;;;;;;13.70;68.87;101120.63;5031132;28;20025;-42
2022/12/20 04:31:23;;;;;;;5.50;3.45;;;;;;;13.75;68.56;101118.00;5030597;28;20041;-40
2022/12/20 04:33:49;;;;;;;7.60;4.00;;;;;;;13.67;68.89;101120.59;5030965;28;20488;-38
2022/12/20 04:36:15;;;;;;;5.95;3.80;;;;;;;13.54;69.76;101118.78;5031095;28;20123;-44
2022/12/20 04:38:40;;;;;;;7.28;3.67;;;;;;;13.80;68.40;101106.69;5031158;28;20100;-41
2022/12/20 04:41:06;;;;;;;6.57;3.95;;;;;;;13.78;69.16;101100.53;5030693;28;20564;-41
2022/12/20 04:43:31;;;;;;;7.22;3.90;;;;;;;13.75;69.19;101099.69;5030825;28;20036;-41
2022/12/20 04:45:57;;;;;;;5.72;3.67;;;;;;;13.59;70.01;101093.50;5030589;28;20053;-42
2022/12/20 04:48:28;;;;;;;5.72;3.92;;;;;;;13.57;70.48;101087.38;5030707;28;20152;-41
2022/12/20 04:50:55;;;;;;;5.15;3.70;;;;;;;13.92;68.52;101084.00;5030190;28;20226;-43
2022/12/20 04:56:05;;;;;;;4.93;3.63;;;;;;;13.57;70.00;101082.13;5030376;28;20040;-41
2022/12/20 04:58:30;;;;;;;5.75;3.58;;;;;;;13.68;69.84;101076.94;5030409;28;20029;-45
2022/12/20 05:00:56;;;;;;;5.55;3.60;;;;;;;13.76;69.45;101080.47;5030665;28;20041;-42
2022/12/20 05:03:23;;;;;;;7.10;3.90;;;;;;;13.81;69.30;101076.13;5030370;28;20536;-42
2022/12/20 05:05:48;;;;;;;6.75;4.18;;;;;;;13.83;69.42;101082.25;5030783;28;20033;-42
2022/12/20 05:08:14;;;;;;;5.93;3.83;;;;;;;13.64;70.16;101073.44;5030485;28;20031;-40
2022/12/20 05:10:39;;;;;;;7.00;3.67;;;;;;;13.86;68.96;101066.50;5030699;28;20021;-42
2022/12/20 05:13:05;;;;;;;5.70;3.63;;;;;;;13.75;69.19;101063.88;5032738;28;20040;-40
2022/12/20 05:15:31;;;;;;;5.13;3.20;;;;;;;13.84;69.03;101057.78;5032209;28;20041;-43
2022/12/20 05:17:58;;;;;;;6.25;3.60;;;;;;;13.59;69.82;101062.06;5030378;28;20064;-43
2022/12/20 05:20:28;;;;;;;5.35;3.35;;;;;;;14.06;68.45;101058.72;5030820;28;20021;-43
2022/12/20 05:28:25;;;;;;;5.60;3.42;;;;;;;13.94;68.73;101051.69;5032055;28;20032;-43
2022/12/20 05:30:51;;;;;;;6.13;3.38;;;;;;;13.99;68.13;101043.84;5031278;28;20365;-41
2022/12/20 05:33:16;;;;;;;5.75;3.47;;;;;;;13.96;68.09;101038.59;5030258;28;20441;-45
2022/12/20 05:35:41;;;;;;;6.70;3.40;;;;;;;14.08;67.44;101043.88;5029765;28;20029;-40
2022/12/20 05:38:07;;;;;;;5.72;3.30;;;;;;;14.20;67.20;101046.50;5030067;28;20033;-43
2022/12/20 05:40:32;;;;;;;5.55;3.22;;;;;;;14.19;67.28;101044.75;5030035;28;20152;-41
2022/12/20 05:42:57;;;;;;;6.22;3.20;;;;;;;14.15;67.27;101037.75;5030170;28;20494;-42
2022/12/20 05:45:23;;;;;;;4.60;3.03;;;;;;;14.17;66.88;101036.00;5029740;28;20402;-41
2022/12/20 05:47:48;;;;;;;4.88;3.38;;;;;;;14.24;66.89;101040.38;5029994;28;20115;-42
2022/12/20 05:50:16;;;;;;;6.95;3.28;;;;;;;14.07;66.97;101016.78;5029707;28;20037;-43
2022/12/20 05:52:41;;;;;;;7.05;3.47;;;;;;;14.00;67.01;101025.50;5029379;28;20033;-41
2022/12/20 05:55:07;;;;;;;4.75;3.30;;;;;;;14.17;66.71;101026.38;5029856;28;20032;-43
2022/12/20 05:57:32;;;;;;;7.00;3.55;;;;;;;13.98;66.77;101016.75;5029960;28;20021;-41
2022/12/20 05:59:57;;;;;;;8.25;3.88;;;;;;;14.22;66.09;101024.66;5029440;28;20032;-44
2022/12/20 06:02:23;;;;;;;5.78;3.53;;;;;;;14.15;66.43;101032.50;5029765;28;20034;-41
2022/12/20 06:04:48;;;;;;;8.05;3.70;;;;;;;14.19;66.35;101026.41;5029580;28;20103;-40
2022/12/20 06:07:13;;;;;;;6.88;3.47;;;;;;;14.03;66.40;101020.25;5030708;28;20469;-41
2022/12/20 06:09:39;;;;;;;8.30;3.40;;;;;;;14.16;65.88;101026.38;5033766;28;20037;-42
2022/12/20 06:12:04;;;;;;;5.28;3.63;;;;;;;14.33;65.49;101022.06;5033095;28;20037;-40
2022/12/20 06:14:29;;;;;;;5.60;3.67;;;;;;;14.33;65.05;101024.69;5033873;28;20179;-44
2022/12/20 06:16:55;;;;;;;5.38;3.55;;;;;;;14.38;64.86;101022.06;5033682;28;20035;-41
2022/12/20 06:19:20;;;;;;;7.47;3.53;;;;;;;14.41;64.58;101015.06;5033718;28;20102;-41
2022/12/20 06:21:46;;;;;;;6.53;3.85;;;;;;;14.51;64.38;101029.06;5033049;28;20021;-44
2022/12/20 06:24:11;;;;;;;6.50;3.70;;;;;;;14.58;64.13;101020.31;5033088;28;20036;-43
2022/12/20 06:26:36;;;;;;;8.38;4.00;;;;;;;14.06;65.25;101027.25;5033092;28;20049;-42
2022/12/20 06:29:07;;;;;;;6.97;3.90;;;;;;;14.17;65.36;101023.78;5031918;28;20052;-43
2022/12/20 06:31:33;;;;;;;7.13;3.70;;;;;;;14.26;64.72;101022.91;5033403;28;20053;-40
2022/12/20 06:33:59;;;;;;;6.75;3.75;;;;;;;14.26;64.71;101025.53;5034258;28;20115;-41
2022/12/20 06:36:24;;;;;;;6.22;3.55;;;;;;;14.45;64.03;101034.31;5033120;28;20029;-41
2022/12/20 06:38:50;;;;;;;5.90;3.47;;;;;;;14.50;63.81;101030.81;5033453;28;20036;-45
2022/12/20 06:41:15;;;;;;;5.55;3.40;;;;;;;14.33;64.38;101022.06;5033102;28;20021;-40
2022/12/20 06:43:41;;;;;;;6.78;3.50;;;;;;;14.33;64.22;101026.41;5033798;28;20375;-42
2022/12/20 06:46:06;;;;;;;8.15;3.55;;;;;;;14.54;63.31;101006.31;5033552;28;20021;-42
2022/12/20 06:48:31;;;;;;;9.20;3.45;;;;;;;14.10;64.76;101024.63;5033058;28;20182;-40
2022/12/20 06:50:57;;;;;;;6.00;3.30;;;;;;;14.54;63.57;101008.94;5032716;28;20053;-42
2022/12/20 06:53:22;;;;;;;7.07;3.40;;;;;;;14.33;64.16;101019.44;5033080;28;20032;-42
2022/12/20 06:55:50;;;;;;;7.65;3.40;;;;;;;14.37;63.69;101029.06;5033220;28;20025;-42
2022/12/20 06:58:17;;;;;;;5.18;3.40;;;;;;;14.39;63.75;101035.19;5033769;28;20160;-40
2022/12/20 07:00:42;;;;;;;5.38;3.20;;;;;;;14.50;63.33;101028.19;5032794;28;20029;-40
2022/12/20 07:03:07;;;;;;;7.72;3.55;;;;;;;14.60;63.03;101019.44;5028697;28;20112;-42
2022/12/20 07:05:33;;;;;;;5.93;3.05;;;;;;;14.65;62.73;101022.06;5026152;28;20036;-42
2022/12/20 07:07:58;;;;;;;5.68;3.20;;;;;;;14.56;62.83;101025.56;5036647;28;20021;-39
2022/12/20 07:10:24;;;;;;;6.95;3.50;;;;;;;14.71;62.31;101029.03;5036090;28;20064;-43
2022/12/20 07:12:51;;;;;;;6.82;3.35;;;;;;;14.52;62.95;101036.91;5035550;28;20596;-43
2022/12/20 07:15:16;;;;;;;4.97;3.08;;;;;;;14.37;63.01;101026.44;5036764;28;20140;-41
2022/12/20 07:17:42;;;;;;;5.05;3.20;;;;;;;14.51;62.91;101037.81;5040286;28;20053;-41
2022/12/20 07:20:08;;;;;;;5.45;3.03;;;;;;;14.20;63.40;101028.16;5039553;28;20400;-41
2022/12/20 07:22:33;;;;;;;4.78;3.03;;;;;;;14.62;62.40;101037.81;5035787;28;20040;-40
2022/12/20 07:24:59;;;;;;;5.25;3.03;;;;;;;14.21;63.46;101036.00;5033694;28;20081;-41
2022/12/20 07:27:24;;;;;;;6.72;3.10;;;;;;;14.47;63.15;101024.69;5033779;28;20131;-43
2022/12/20 07:29:50;;;;;;;6.20;3.00;;;;;;;14.35;63.97;101033.41;5034229;28;20052;-43
2022/12/20 07:32:15;;;;;;;5.07;3.20;;;;;;;14.35;63.93;101028.16;5034241;28;20030;-40
2022/12/20 07:34:41;;;;;;;4.75;2.92;;;;;;;14.44;63.62;101022.97;5033802;28;20359;-46
2022/12/20 07:37:07;;;;;;;5.13;2.88;;;;;;;14.28;64.60;101033.38;5033231;28;20061;-41
2022/12/20 07:39:33;;;;;;;4.68;2.85;;;;;;;14.50;64.31;101028.19;5033361;28;20445;-43
2022/12/20 07:41:58;;;;;;;6.80;3.50;;;;;;;14.17;65.43;101026.38;5033606;28;20429;-40
2022/12/20 07:44:24;;;;;;;5.97;2.92;;;;;;;14.40;65.08;101022.94;5034204;28;20478;-43
2022/12/20 07:46:49;;;;;;;6.00;2.90;;;;;;;14.03;65.88;101022.88;5033458;28;20029;-43
2022/12/20 07:49:14;;;;;;;5.80;2.90;;;;;;;14.33;65.43;101029.91;5033386;28;20029;-38
2022/12/20 07:51:50;;;;;;;5.25;3.00;;;;;;;13.75;67.68;101027.19;5033299;28;20036;-42
2022/12/20 07:54:23;;;;;;;6.05;3.05;;;;;;;13.77;67.49;101029.81;5033060;28;20018;-40
2022/12/20 07:56:53;;;;;;;6.03;3.23;;;;;;;13.85;67.67;101033.31;5033677;28;20442;-42
2022/12/20 07:59:24;;;;;;;5.50;2.80;;;;;;;13.60;68.86;101034.13;5033046;28;20048;-42
2022/12/20 08:01:50;;;;;;;6.03;3.20;;;;;;;13.80;68.47;101035.06;5033253;28;20581;-42
2022/12/20 08:04:24;;;;;;;7.20;3.13;;;;;;;13.79;68.77;101041.16;5022410;28;20037;-41
2022/12/20 08:06:51;;;;;;;5.27;3.10;;;;;;;13.79;68.85;101046.41;5013076;28;20022;-41
2022/12/20 08:09:18;;;;;;;7.68;3.17;;;;;;;13.68;69.54;101048.13;5012458;28;20457;-41
2022/12/20 08:11:47;;;;;;;5.50;3.28;;;;;;;13.56;69.89;101048.06;5012719;28;20030;-43
2022/12/20 08:14:13;;;;;;;9.35;3.05;;;;;;;13.32;70.54;101059.31;5011777;28;20575;-41
2022/12/20 08:16:39;;;;;;;5.90;2.85;;;;;;;13.00;71.29;101043.38;5013294;28;20096;-40
2022/12/20 08:19:04;;;;;;;6.80;3.10;;;;;;;13.55;70.15;101039.34;5012368;28;20159;-41
2022/12/20 08:21:30;;;;;;;5.53;2.88;;;;;;;13.72;69.50;101042.03;5011492;28;20097;-40
2022/12/20 08:23:56;;;;;;;4.70;3.00;;;;;;;13.43;70.36;101043.66;5012214;28;20140;-42
2022/12/20 08:26:21;;;;;;;5.25;3.10;;;;;;;13.69;69.39;101040.28;5011368;28;20038;-40
2022/12/20 08:28:47;;;;;;;8.27;3.20;;;;;;;13.71;69.25;101030.69;5011394;28;20025;-41
2022/12/20 08:31:12;;;;;;;5.15;3.08;;;;;;;13.70;69.23;101036.78;5008636;28;20026;-39
2022/12/20 08:33:39;;;;;;;4.95;2.80;;;;;;;13.68;69.16;101037.63;5011154;28;20105;-42
2022/12/20 08:36:08;;;;;;;5.05;2.72;;;;;;;13.71;69.04;101035.91;5011561;28;20632;-40
2022/12/20 08:38:34;;;;;;;6.32;2.92;;;;;;;13.76;68.75;101044.66;5011537;28;20156;-41
2022/12/20 08:41:09;;;;;;;4.63;2.80;;;;;;;13.90;68.41;101043.84;5012203;28;20108;-40
2022/12/20 08:43:35;;;;;;;8.80;2.90;;;;;;;13.82;68.61;101039.44;5012047;28;20021;-43
2022/12/20 08:46:01;;;;;;;4.88;2.90;;;;;;;13.91;67.83;101033.31;5012327;28;20033;-42
2022/12/20 08:48:27;;;;;;;7.25;3.15;;;;;;;14.01;67.80;101037.75;5012675;28;20411;-44
2022/12/20 08:50:54;;;;;;;5.18;2.70;;;;;;;13.79;68.42;101035.91;5012497;28;20026;-40
2022/12/20 08:53:20;;;;;;;5.75;2.67;;;;;;;13.92;68.01;101035.09;5011861;28;20056;-43
2022/12/20 08:55:45;;;;;;;5.82;2.90;;;;;;;13.81;68.75;101035.06;5011063;28;20112;-44
2022/12/20 08:58:10;;;;;;;5.72;2.70;;;;;;;13.60;69.36;101037.59;5010700;28;20026;-41
2022/12/20 09:00:36;;;;;;;8.52;2.83;;;;;;;13.90;68.23;101038.59;5011613;28;20017;-41
2022/12/20 09:03:02;;;;;;;4.68;2.60;;;;;;;13.88;68.53;101042.94;5012442;28;20022;-44
2022/12/20 09:05:27;;;;;;;6.88;2.92;;;;;;;13.92;68.45;101031.59;5010997;28;20131;-41
2022/12/20 09:07:52;;;;;;;4.40;2.63;;;;;;;13.74;69.19;101038.53;5011096;28;20034;-41
2022/12/20 09:10:18;;;;;;;6.40;3.00;;;;;;;13.93;68.56;101043.81;5010589;28;20024;-44
2022/12/20 09:12:43;;;;;;;4.55;2.60;;;;;;;13.88;69.17;101048.19;5010457;28;20591;-44
2022/12/20 09:15:10;;;;;;;6.25;2.80;;;;;;;13.92;68.63;101042.94;5010762;28;20022;-43
2022/12/20 09:17:35;;;;;;;5.13;2.83;;;;;;;13.77;69.75;101041.19;5011515;28;20048;-40
2022/12/20 09:20:01;;;;;;;6.60;2.95;;;;;;;14.01;69.21;101029.88;5011805;28;20487;-40
2022/12/20 09:22:28;;;;;;;6.72;3.20;;;;;;;13.85;69.63;101032.44;5010919;28;20022;-51
2022/12/20 09:24:54;;;;;;;6.85;2.90;;;;;;;13.90;69.36;101047.34;5010512;28;20120;-41
2022/12/20 09:27:19;;;;;;;7.50;2.92;;;;;;;14.06;69.35;101046.47;5010326;28;20417;-40
2022/12/20 09:29:45;;;;;;;5.55;2.78;;;;;;;13.85;70.40;101037.69;5010799;28;20058;-44
2022/12/20 09:32:11;;;;;;;5.22;2.70;;;;;;;13.95;70.41;101035.09;5010331;28;20042;-42
2022/12/20 09:34:38;;;;;;;6.60;3.20;;;;;;;13.58;71.33;101048.97;5010507;28;20516;-41
2022/12/20 09:37:03;;;;;;;5.97;3.00;;;;;;;13.96;70.43;101036.88;5055704;22;20134;-40
2022/12/20 09:39:29;;;;;;;5.82;3.00;;;;;;;13.77;71.08;101038.56;5055107;28;20315;-41
2022/12/20 09:41:54;;;;;;;5.50;2.70;;;;;;;13.66;71.77;101036.78;5053803;28;20392;-35
2022/12/20 09:44:33;;;;;;;6.80;3.38;;;;;;;13.79;71.02;101039.41;5051066;28;20031;-41
2022/12/20 09:47:15;;;;;;;5.75;3.00;;;;;;;13.99;70.61;101043.84;5050265;28;20025;-41
2022/12/20 09:49:46;;;;;;;4.50;2.80;;;;;;;13.76;71.15;101039.41;5050398;28;20021;-41
2022/12/20 09:52:29;;;;;;;6.63;2.80;;;;;;;14.01;70.60;101040.38;5051692;28;20035;-39
2022/12/20 09:55:16;;;;;;;5.07;3.07;;;;;;;13.89;70.78;101044.69;5051846;28;20108;-39
2022/12/20 09:57:50;;;;;;;5.00;3.45;;;;;;;13.94;70.70;101053.44;5051413;28;20275;-40
2022/12/20 10:00:17;;;;;;;4.85;2.85;;;;;;;13.88;71.37;101042.94;5052144;28;20037;-39
2022/12/20 10:02:43;;;;;;;6.10;3.33;;;;;;;13.73;71.86;101036.78;5052316;28;20638;-42
2022/12/20 10:05:13;;;;;;;8.15;2.92;;;;;;;13.57;72.47;101037.59;5054916;28;20029;-39
2022/12/20 10:08:16;;;;;;;5.88;3.20;;;;;;;13.72;71.65;101035.03;5055237;28;20496;-38
2022/12/20 10:10:53;;;;;;;7.53;3.28;;;;;;;13.79;71.59;101028.06;5055084;28;20397;-38
2022/12/20 10:13:41;;;;;;;5.55;3.00;;;;;;;13.60;72.80;101034.13;5054136;28;20021;-39
2022/12/20 10:16:45;;;;;;;8.35;3.05;;;;;;;13.78;72.17;101029.81;5052759;28;20118;-39
2022/12/20 10:19:14;;;;;;;7.20;3.20;;;;;;;13.80;71.78;101019.31;5051922;28;20041;-39
2022/12/20 10:22:00;;;;;;;4.60;3.10;;;;;;;13.76;72.29;101028.94;5049764;28;20025;-39
2022/12/20 10:24:31;;;;;;;7.97;3.38;;;;;;;13.78;71.93;101026.34;5050060;28;20124;-40
2022/12/20 10:27:18;;;;;;;6.32;3.45;;;;;;;13.99;71.54;101022.88;5049918;28;20029;-40
2022/12/20 10:29:45;;;;;;;6.75;3.28;;;;;;;13.83;71.89;101029.84;5049526;28;20078;-40
2022/12/20 10:32:17;;;;;;;7.93;3.13;;;;;;;13.79;72.07;101031.56;5050318;28;20028;-39
2022/12/20 10:35:00;;;;;;;7.00;3.13;;;;;;;13.55;73.01;101036.72;5053141;28;20035;-39
2022/12/20 10:37:25;;;;;;;5.18;3.17;;;;;;;13.59;72.49;101040.25;5052356;28;20033;-38
2022/12/20 10:39:51;;;;;;;8.90;3.78;;;;;;;13.53;73.50;101034.97;5053693;28;20082;-38
2022/12/20 10:42:29;;;;;;;6.00;3.42;;;;;;;13.48;73.73;101034.94;5052695;28;20021;-40
2022/12/20 10:44:56;;;;;;;8.60;3.35;;;;;;;13.61;73.37;101021.03;5053197;28;20485;-39
2022/12/20 10:47:53;;;;;;;6.93;3.38;;;;;;;13.78;72.95;101024.56;5052362;28;20029;-39
2022/12/20 10:50:21;;;;;;;5.43;3.38;;;;;;;13.77;73.25;101025.47;5049943;28;20064;-38
2022/12/20 10:53:18;;;;;;;5.70;3.47;;;;;;;13.42;73.96;101020.97;5053032;28;20021;-38
2022/12/20 10:55:43;;;;;;;6.47;3.55;;;;;;;13.23;75.27;101035.72;5055662;28;20331;-36
2022/12/20 10:58:20;;;;;;;7.85;3.70;;;;;;;13.72;73.66;101028.94;5054806;28;20036;-39
2022/12/20 11:00:48;;;;;;;6.43;3.67;;;;;;;13.71;73.94;101022.81;5054035;28;20151;-39
2022/12/20 11:03:20;;;;;;;7.13;3.83;;;;;;;14.06;72.65;101009.78;5053974;28;20031;-40
2022/12/20 11:05:53;;;;;;;7.15;3.85;;;;;;;13.79;73.59;101014.94;5053458;28;20029;-39
2022/12/20 11:08:20;;;;;;;6.50;3.97;;;;;;;14.11;72.50;101013.28;5042241;28;20086;-37
2022/12/20 11:10:46;;;;;;;6.95;3.83;;;;;;;14.13;72.20;101022.03;5054537;28;20029;-38
2022/12/20 11:13:25;;;;;;;6.80;4.05;;;;;;;14.04;72.89;101014.13;5053676;28;20370;-39
2022/12/20 11:15:55;;;;;;;7.05;4.18;;;;;;;13.50;74.21;101014.00;5053233;28;20040;-38
2022/12/20 11:18:21;;;;;;;7.60;4.20;;;;;;;13.84;73.51;101017.59;5053471;28;20028;-38
2022/12/20 11:21:07;;;;;;;8.13;4.60;;;;;;;13.65;74.47;101009.69;5056351;28;20025;-39
2022/12/20 11:23:44;;;;;;;6.65;4.47;;;;;;;13.62;74.48;101011.41;5054913;28;20174;-39
2022/12/20 11:26:30;;;;;;;7.60;4.28;;;;;;;13.70;74.26;101001.84;5053452;28;20028;-40
2022/12/20 11:29:10;;;;;;;10.30;4.82;;;;;;;13.51;74.63;101016.63;5052578;28;20400;-39
2022/12/20 11:32:17;;;;;;;8.05;4.65;;;;;;;13.99;73.50;101005.41;5052284;28;20025;-39
2022/12/20 11:34:51;;;;;;;8.80;4.55;;;;;;;14.10;72.84;101014.13;5053755;28;20029;-41
2022/12/20 11:37:24;;;;;;;7.97;4.82;;;;;;;14.00;73.15;101004.53;5053935;28;20432;-40
2022/12/20 11:40:05;;;;;;;7.55;4.60;;;;;;;14.02;72.91;101007.16;5055777;28;20468;-39
2022/12/20 11:42:42;;;;;;;9.13;4.65;;;;;;;13.69;74.19;101007.94;5052644;28;20028;-42